createdAt,value
2023-02-19T00:01:47.434Z,6.30
2023-02-19T00:04:16.147Z,4.82
2023-02-19T00:06:43.710Z,6.35
2023-02-19T00:09:13.196Z,6.22
2023-02-19T00:11:40.717Z,5.32
2023-02-19T00:14:08.265Z,5.47
2023-02-19T00:16:37.446Z,5.60
2023-02-19T00:19:06.547Z,6.03
2023-02-19T00:21:34.293Z,6.60
2023-02-19T00:24:03.845Z,6.13
2023-02-19T00:26:34.773Z,6.47
2023-02-19T00:29:02.306Z,6.38
2023-02-19T00:31:32.970Z,7.50
2023-02-19T00:34:02.491Z,6.38
2023-02-19T00:36:30.466Z,6.72
2023-02-19T00:38:57.580Z,7.68
2023-02-19T00:41:25.162Z,6.65
2023-02-19T00:43:55.571Z,6.88
2023-02-19T00:46:24.342Z,6.95
2023-02-19T00:48:51.652Z,6.68
2023-02-19T00:51:20.093Z,6.45
2023-02-19T00:53:47.085Z,7.03
2023-02-19T00:56:14.469Z,7.15
2023-02-19T00:58:41.940Z,6.03
2023-02-19T01:01:11.779Z,7.10
2023-02-19T01:03:39.948Z,7.40
2023-02-19T01:06:08.833Z,7.22
2023-02-19T01:08:36.168Z,8.23
2023-02-19T01:11:04.772Z,9.07
2023-02-19T01:13:32.152Z,7.70
2023-02-19T01:16:04.126Z,6.30
2023-02-19T01:18:32.911Z,7.63
2023-02-19T01:21:00.230Z,7.57
2023-02-19T01:23:27.380Z,8.27
2023-02-19T01:25:54.430Z,7.25
2023-02-19T01:28:21.493Z,8.00
2023-02-19T01:30:48.535Z,7.10
2023-02-19T01:33:15.601Z,7.47
2023-02-19T01:35:43.977Z,7.43
2023-02-19T01:38:10.933Z,6.80
2023-02-19T01:40:37.923Z,6.40
2023-02-19T01:43:11.387Z,6.50
2023-02-19T01:45:39.471Z,6.68
2023-02-19T01:48:11.534Z,6.45
2023-02-19T01:50:44.314Z,6.80
2023-02-19T01:53:13.657Z,6.22
2023-02-19T01:55:41.208Z,6.85
2023-02-19T01:58:09.327Z,5.13
2023-02-19T02:00:37.124Z,5.70
2023-02-19T02:03:05.311Z,6.10
2023-02-19T02:05:42.193Z,5.95
2023-02-19T02:08:12.137Z,5.07
2023-02-19T02:10:39.213Z,5.72
2023-02-19T02:13:06.346Z,4.57
2023-02-19T02:15:42.268Z,5.85
2023-02-19T02:18:16.850Z,5.75
2023-02-19T02:21:03.588Z,4.90
2023-02-19T02:23:40.815Z,4.90
2023-02-19T02:26:25.694Z,3.97
2023-02-19T02:29:21.730Z,4.68
2023-02-19T02:31:54.072Z,4.80
2023-02-19T02:34:25.514Z,4.95
2023-02-19T02:36:55.747Z,4.75
2023-02-19T02:39:25.467Z,4.43
2023-02-19T02:41:57.493Z,4.38
2023-02-19T02:44:34.519Z,4.68
2023-02-19T02:47:05.739Z,4.50
2023-02-19T02:49:34.659Z,4.78
2023-02-19T02:52:02.511Z,4.18
2023-02-19T02:54:33.548Z,4.68
2023-02-19T02:57:07.481Z,4.47
2023-02-19T02:59:38.290Z,3.53
2023-02-19T03:02:15.506Z,4.70
2023-02-19T03:04:50.833Z,3.63
2023-02-19T03:07:24.547Z,4.10
2023-02-19T03:09:51.965Z,4.00
2023-02-19T03:12:27.497Z,3.78
2023-02-19T03:14:58.262Z,4.03
2023-02-19T03:17:40.569Z,4.47
2023-02-19T03:20:12.987Z,4.60
2023-02-19T03:22:48.448Z,3.70
2023-02-19T03:25:19.934Z,3.55
2023-02-19T03:27:55.419Z,4.05
2023-02-19T03:30:25.456Z,3.85
2023-02-19T03:33:03.422Z,3.50
2023-02-19T03:35:33.172Z,3.72
2023-02-19T03:38:13.480Z,3.50
2023-02-19T03:40:56.481Z,3.97
2023-02-19T03:43:38.496Z,3.42
2023-02-19T03:46:11.543Z,2.72
2023-02-19T03:48:55.440Z,3.85
2023-02-19T03:51:32.724Z,2.60
2023-02-19T03:54:17.483Z,3.20
2023-02-19T03:56:49.108Z,3.13
2023-02-19T03:59:30.430Z,3.30
2023-02-19T04:02:02.887Z,3.33
2023-02-19T04:04:42.558Z,3.38
2023-02-19T04:07:09.758Z,3.30
2023-02-19T04:09:53.493Z,3.63
2023-02-19T04:12:22.394Z,3.38
2023-02-19T04:15:00.494Z,3.00
2023-02-19T04:17:33.252Z,3.05
2023-02-19T04:20:06.076Z,4.20
2023-02-19T04:22:34.584Z,2.75
2023-02-19T04:25:01.721Z,3.13
2023-02-19T04:27:28.992Z,2.72
2023-02-19T04:29:56.113Z,3.00
2023-02-19T04:32:23.165Z,2.97
2023-02-19T04:34:50.215Z,3.17
2023-02-19T04:37:18.759Z,3.28
2023-02-19T04:39:45.956Z,2.70
2023-02-19T04:42:13.009Z,2.40
2023-02-19T04:44:39.976Z,3.55
2023-02-19T04:47:07.257Z,3.45
2023-02-19T04:49:34.307Z,3.85
2023-02-19T04:52:01.448Z,3.47
2023-02-19T04:54:29.830Z,3.85
2023-02-19T04:56:56.903Z,3.15
2023-02-19T04:59:23.947Z,3.25
2023-02-19T05:01:51.041Z,2.75
2023-02-19T05:04:18.146Z,3.80
2023-02-19T05:06:45.229Z,3.38
2023-02-19T05:09:12.335Z,3.10
2023-02-19T05:11:40.824Z,3.78
2023-02-19T05:14:08.003Z,3.42
2023-02-19T05:16:35.287Z,4.00
2023-02-19T05:19:02.355Z,3.13
2023-02-19T05:21:29.374Z,3.25
2023-02-19T05:23:56.465Z,3.95
2023-02-19T05:26:24.375Z,3.80
2023-02-19T05:28:53.620Z,3.90
2023-02-19T05:31:21.317Z,4.18
2023-02-19T05:33:48.697Z,3.42
2023-02-19T05:36:15.697Z,3.42
2023-02-19T05:38:43.168Z,3.47
2023-02-19T05:41:12.650Z,3.40
2023-02-19T05:43:40.655Z,3.45
2023-02-19T05:46:10.810Z,3.45
2023-02-19T05:48:38.030Z,3.90
2023-02-19T05:51:07.482Z,3.63
2023-02-19T05:53:34.748Z,3.30
2023-02-19T05:56:01.806Z,2.95
2023-02-19T05:58:29.515Z,3.47
2023-02-19T06:00:57.084Z,3.13
2023-02-19T06:03:25.565Z,3.92
2023-02-19T06:05:52.578Z,3.47
2023-02-19T06:08:19.626Z,4.20
2023-02-19T06:10:46.651Z,3.05
2023-02-19T06:13:13.644Z,3.05
2023-02-19T06:15:40.645Z,3.03
2023-02-19T06:18:07.733Z,3.10
2023-02-19T06:20:36.068Z,3.17
2023-02-19T06:23:03.074Z,3.47
2023-02-19T06:25:30.215Z,3.80
2023-02-19T06:27:57.275Z,3.60
2023-02-19T06:30:24.378Z,3.40
2023-02-19T06:32:52.538Z,3.10
2023-02-19T06:35:19.661Z,3.28
2023-02-19T06:37:49.174Z,3.38
2023-02-19T06:40:16.434Z,3.15
2023-02-19T06:42:43.499Z,3.30
2023-02-19T06:45:10.480Z,3.38
2023-02-19T06:47:37.499Z,3.85
2023-02-19T06:50:05.117Z,3.33
2023-02-19T06:52:32.250Z,3.47
2023-02-19T06:55:00.604Z,3.00
2023-02-19T06:57:27.708Z,3.30
2023-02-19T06:59:54.746Z,4.18
2023-02-19T07:02:22.072Z,3.05
2023-02-19T07:04:49.051Z,3.05
2023-02-19T07:07:16.118Z,3.22
2023-02-19T07:09:43.248Z,3.50
2023-02-19T07:12:11.649Z,3.28
2023-02-19T07:14:38.662Z,2.55
2023-02-19T07:17:05.653Z,3.47
2023-02-19T07:19:32.655Z,2.85
2023-02-19T07:21:59.617Z,3.75
2023-02-19T07:24:26.759Z,3.03
2023-02-19T07:26:53.787Z,3.47
2023-02-19T07:29:22.532Z,2.50
2023-02-19T07:31:49.552Z,4.28
2023-02-19T07:34:16.614Z,3.40
2023-02-19T07:36:43.702Z,3.72
2023-02-19T07:39:13.165Z,2.97
2023-02-19T07:41:40.478Z,3.30
2023-02-19T07:44:07.600Z,3.30
2023-02-19T07:46:36.082Z,2.80
2023-02-19T07:49:03.078Z,3.30
2023-02-19T07:51:30.120Z,3.20
2023-02-19T07:53:57.394Z,2.85
2023-02-19T07:56:24.402Z,3.72
2023-02-19T07:58:51.396Z,3.42
2023-02-19T08:01:19.963Z,3.25
2023-02-19T08:03:50.469Z,3.08
2023-02-19T08:06:17.567Z,3.92
2023-02-19T08:08:44.583Z,4.18
2023-02-19T08:11:12.133Z,3.45
2023-02-19T08:13:39.409Z,3.03
2023-02-19T08:16:20.168Z,3.47
2023-02-19T08:18:50.386Z,3.20
2023-02-19T08:21:17.442Z,3.97
2023-02-19T08:23:44.445Z,4.13
2023-02-19T08:26:11.758Z,3.13
2023-02-19T08:28:39.062Z,3.35
2023-02-19T08:31:07.598Z,3.55
2023-02-19T08:33:35.081Z,3.67
2023-02-19T08:36:05.279Z,3.13
2023-02-19T08:38:33.226Z,3.50
2023-02-19T08:41:00.211Z,3.28
2023-02-19T08:43:27.408Z,3.80
2023-02-19T08:45:54.317Z,2.97
2023-02-19T08:48:21.697Z,3.60
2023-02-19T08:50:54.246Z,3.50
2023-02-19T08:53:22.943Z,3.53
2023-02-19T08:55:50.604Z,3.58
2023-02-19T08:58:17.665Z,3.78
2023-02-19T09:00:45.152Z,3.35
2023-02-19T09:03:12.136Z,3.33
2023-02-19T09:05:39.446Z,3.90
2023-02-19T09:08:06.814Z,3.42
2023-02-19T09:10:35.294Z,2.97
2023-02-19T09:13:02.271Z,3.53
2023-02-19T09:15:29.440Z,3.72
2023-02-19T09:17:56.691Z,3.80
2023-02-19T09:20:23.603Z,3.58
2023-02-19T09:22:50.665Z,3.88
2023-02-19T09:25:19.020Z,3.45
2023-02-19T09:27:47.424Z,3.67
2023-02-19T09:30:14.403Z,3.10
2023-02-19T09:32:41.517Z,4.10
2023-02-19T09:35:08.688Z,3.47
2023-02-19T09:37:35.938Z,3.53
2023-02-19T09:40:02.964Z,4.15
2023-02-19T09:42:32.801Z,3.25
2023-02-19T09:45:04.356Z,3.47
2023-02-19T09:47:34.263Z,3.95
2023-02-19T09:50:06.279Z,4.03
2023-02-19T09:52:36.819Z,3.50
2023-02-19T09:55:16.356Z,3.20
2023-02-19T09:57:44.810Z,3.97
2023-02-19T10:00:22.568Z,3.97
2023-02-19T10:02:52.678Z,3.80
2023-02-19T10:05:21.670Z,4.72
2023-02-19T10:07:52.295Z,4.82
2023-02-19T10:10:26.589Z,3.67
2023-02-19T10:12:59.087Z,3.92
2023-02-19T10:15:32.165Z,4.53
2023-02-19T10:17:59.498Z,4.20
2023-02-19T10:20:27.267Z,4.18
2023-02-19T10:23:02.096Z,3.90
2023-02-19T10:25:30.201Z,4.15
2023-02-19T10:27:58.373Z,4.00
2023-02-19T10:30:29.169Z,4.22
2023-02-19T10:33:03.211Z,4.68
2023-02-19T10:35:31.216Z,4.30
2023-02-19T10:37:58.624Z,4.55
2023-02-19T10:40:28.903Z,4.43
2023-02-19T10:42:58.304Z,4.60
2023-02-19T10:45:34.062Z,4.25
2023-02-19T10:48:01.499Z,4.80
2023-02-19T10:50:32.700Z,4.05
2023-02-19T10:53:00.997Z,4.15
2023-02-19T10:55:31.019Z,4.45
2023-02-19T10:58:15.417Z,3.95
2023-02-19T11:00:43.972Z,5.47
2023-02-19T11:03:19.732Z,4.40
2023-02-19T11:06:04.030Z,3.72
2023-02-19T11:08:34.709Z,3.95
2023-02-19T11:11:01.814Z,4.28
2023-02-19T11:13:32.645Z,4.22
2023-02-19T11:16:01.665Z,3.65
2023-02-19T11:18:31.519Z,3.85
2023-02-19T11:21:00.116Z,4.32
2023-02-19T11:23:29.788Z,3.42
2023-02-19T11:25:59.067Z,3.63
2023-02-19T11:28:33.068Z,3.50
2023-02-19T11:31:24.833Z,3.87
2023-02-19T11:33:56.357Z,3.78
2023-02-19T11:36:33.319Z,3.05
2023-02-19T11:39:19.473Z,3.97
2023-02-19T11:42:04.133Z,3.53
2023-02-19T11:44:44.994Z,3.65
2023-02-19T11:47:38.166Z,3.72
2023-02-19T11:50:19.221Z,3.88
2023-02-19T11:52:56.435Z,3.65
2023-02-19T11:55:34.243Z,4.10
2023-02-19T11:58:18.112Z,3.90
2023-02-19T12:00:51.017Z,3.65
2023-02-19T12:03:44.210Z,3.08
2023-02-19T12:06:26.883Z,3.88
2023-02-19T12:09:07.688Z,4.78
2023-02-19T12:11:49.687Z,4.50
2023-02-19T12:14:38.936Z,4.30
2023-02-19T12:17:13.135Z,3.72
2023-02-19T12:19:59.342Z,4.68
2023-02-19T12:22:46.315Z,4.43
2023-02-19T12:25:29.104Z,4.63
2023-02-19T12:28:08.389Z,3.70
2023-02-19T12:30:55.651Z,4.20
2023-02-19T12:33:47.318Z,3.78
2023-02-19T12:36:25.225Z,4.15
2023-02-19T12:39:00.534Z,4.10
2023-02-19T12:41:37.412Z,2.70
2023-02-19T12:44:11.685Z,3.25
2023-02-19T12:46:41.589Z,3.35
2023-02-19T12:49:13.166Z,2.90
2023-02-19T12:51:47.333Z,3.10
2023-02-19T12:54:23.393Z,2.83
2023-02-19T12:56:55.135Z,3.38
2023-02-19T12:59:27.155Z,3.65
2023-02-19T13:02:06.143Z,3.60
2023-02-19T13:04:43.421Z,3.47
2023-02-19T13:07:16.972Z,3.55
2023-02-19T13:09:49.318Z,3.60
2023-02-19T13:12:22.754Z,4.28
2023-02-19T13:14:54.712Z,3.60
2023-02-19T13:17:26.564Z,3.40
2023-02-19T13:19:59.418Z,4.32
2023-02-19T13:22:36.220Z,4.10
2023-02-19T13:25:06.042Z,3.60
2023-02-19T13:28:00.489Z,3.70
2023-02-19T13:30:42.766Z,4.03
2023-02-19T13:33:34.342Z,4.70
2023-02-19T13:36:10.527Z,3.53
2023-02-19T13:38:42.021Z,3.60
2023-02-19T13:41:19.806Z,3.35
2023-02-19T13:43:54.299Z,3.85
2023-02-19T13:46:21.706Z,3.72
2023-02-19T13:48:48.801Z,4.22
2023-02-19T13:51:38.840Z,4.07
2023-02-19T13:54:21.780Z,3.70
2023-02-19T13:56:49.596Z,4.00
2023-02-19T13:59:35.083Z,4.05
2023-02-19T14:02:35.435Z,3.90
2023-02-19T14:05:07.979Z,4.07
2023-02-19T14:07:54.100Z,4.25
2023-02-19T14:11:00.119Z,3.83
2023-02-19T14:14:00.015Z,3.72
2023-02-19T14:16:54.784Z,4.00
2023-02-19T14:19:50.051Z,4.40
2023-02-19T14:22:59.140Z,4.05
2023-02-19T14:25:42.229Z,3.53
2023-02-19T14:28:21.328Z,3.83
2023-02-19T14:30:52.084Z,3.53
2023-02-19T14:33:22.284Z,3.38
2023-02-19T14:35:53.859Z,3.80
2023-02-19T14:38:25.332Z,3.50
2023-02-19T14:40:53.963Z,3.42
2023-02-19T14:43:24.602Z,3.35
2023-02-19T14:45:56.209Z,3.05
2023-02-19T14:48:26.381Z,3.65
2023-02-19T14:50:58.964Z,3.03
2023-02-19T14:53:27.803Z,3.70
2023-02-19T14:55:56.620Z,3.17
2023-02-19T14:58:28.620Z,3.25
2023-02-19T15:00:57.084Z,3.58
2023-02-19T15:03:30.628Z,3.00
2023-02-19T15:06:01.841Z,2.38
2023-02-19T15:08:36.967Z,2.45
2023-02-19T15:11:09.423Z,2.30
2023-02-19T15:13:37.719Z,2.25
2023-02-19T15:16:07.359Z,1.98
2023-02-19T15:18:38.058Z,2.00
2023-02-19T15:21:06.256Z,2.00
2023-02-19T15:23:34.613Z,2.60
2023-02-19T15:26:02.011Z,2.50
2023-02-19T15:28:32.722Z,2.42
2023-02-19T15:31:14.532Z,2.70
2023-02-19T15:33:50.425Z,2.90
2023-02-19T15:36:24.812Z,2.75
2023-02-19T15:38:54.591Z,2.70
2023-02-19T15:41:23.489Z,2.60
2023-02-19T15:43:55.310Z,2.60
2023-02-19T15:46:25.445Z,2.40
2023-02-19T15:49:00.700Z,2.78
2023-02-19T15:51:34.848Z,3.20
2023-02-19T15:54:08.157Z,2.30
2023-02-19T15:56:38.322Z,2.67
2023-02-19T15:59:14.026Z,2.75
2023-02-19T16:01:42.911Z,3.15
2023-02-19T16:04:13.645Z,2.90
2023-02-19T16:06:55.155Z,3.17
2023-02-19T16:09:24.210Z,3.33
2023-02-19T16:11:54.239Z,3.30
2023-02-19T16:14:29.396Z,3.53
2023-02-19T16:17:00.428Z,3.60
2023-02-19T16:19:30.640Z,3.10
2023-02-19T16:21:58.648Z,3.58
2023-02-19T16:24:30.166Z,3.58
2023-02-19T16:26:58.241Z,3.05
2023-02-19T16:29:27.852Z,4.47
2023-02-19T16:31:58.749Z,3.40
2023-02-19T16:34:34.556Z,3.80
2023-02-19T16:37:03.041Z,3.58
2023-02-19T16:39:30.482Z,3.70
2023-02-19T16:42:18.731Z,4.28
2023-02-19T16:44:47.119Z,3.80
2023-02-19T16:47:33.018Z,4.47
2023-02-19T16:50:03.590Z,4.80
2023-02-19T16:52:31.252Z,3.67
2023-02-19T16:54:58.359Z,4.45
2023-02-19T16:57:25.618Z,4.93
2023-02-19T16:59:52.625Z,5.05
2023-02-19T17:02:24.218Z,5.60
2023-02-19T17:04:52.956Z,5.05
2023-02-19T17:07:20.030Z,5.35
2023-02-19T17:09:47.019Z,5.72
2023-02-19T17:12:16.934Z,6.70
2023-02-19T17:14:44.067Z,5.75
2023-02-19T17:17:11.302Z,5.25
2023-02-19T17:19:38.338Z,5.28
2023-02-19T17:22:07.291Z,6.65
2023-02-19T17:24:34.462Z,6.30
2023-02-19T17:27:01.549Z,5.70
2023-02-19T17:29:29.829Z,6.00
2023-02-19T17:31:57.009Z,5.60
2023-02-19T17:34:24.151Z,5.18
2023-02-19T17:36:51.113Z,5.55
2023-02-19T17:39:19.547Z,6.00
2023-02-19T17:41:46.662Z,5.78
2023-02-19T17:44:14.930Z,13.40
2023-02-19T17:46:42.587Z,10.55
2023-02-19T17:49:12.447Z,7.30
2023-02-19T17:51:39.537Z,7.95
2023-02-19T17:54:08.378Z,8.57
2023-02-19T17:56:38.849Z,7.28
2023-02-19T17:59:05.941Z,6.75
2023-02-19T18:01:35.678Z,6.38
2023-02-19T18:04:04.290Z,5.80
2023-02-19T18:06:31.650Z,5.70
2023-02-19T18:08:58.744Z,6.18
2023-02-19T18:11:25.997Z,6.50
2023-02-19T18:13:54.454Z,7.55
2023-02-19T18:16:22.112Z,7.35
2023-02-19T18:18:53.354Z,7.07
2023-02-19T18:21:24.177Z,6.97
2023-02-19T18:23:51.214Z,6.45
2023-02-19T18:26:19.735Z,6.53
2023-02-19T18:28:46.891Z,7.22
2023-02-19T18:31:15.629Z,7.40
2023-02-19T18:33:43.586Z,7.60
2023-02-19T18:36:11.479Z,7.72
2023-02-19T18:38:38.945Z,7.57
2023-02-19T18:41:06.108Z,8.18
2023-02-19T18:43:33.441Z,8.80
2023-02-19T18:46:00.562Z,7.93
2023-02-19T18:48:28.986Z,8.50
2023-02-19T18:50:56.002Z,8.35
2023-02-19T18:53:23.073Z,11.68
2023-02-19T18:55:50.743Z,9.88
2023-02-19T18:58:17.777Z,11.93
2023-02-19T19:00:44.866Z,10.98
2023-02-19T19:03:12.397Z,12.05
2023-02-19T19:05:40.880Z,12.15
2023-02-19T19:08:07.892Z,12.15
2023-02-19T19:10:34.820Z,12.95
2023-02-19T19:13:02.185Z,14.98
2023-02-19T19:15:29.634Z,12.52
2023-02-19T19:17:56.900Z,12.43
2023-02-19T19:20:23.972Z,12.95
2023-02-19T19:22:52.963Z,13.10
2023-02-19T19:25:24.046Z,11.80
2023-02-19T19:27:54.529Z,12.48
2023-02-19T19:30:22.064Z,14.50
2023-02-19T19:32:49.666Z,16.80
2023-02-19T19:35:17.123Z,15.45
2023-02-19T19:37:44.279Z,14.50
2023-02-19T19:40:13.472Z,14.38
2023-02-19T19:42:44.380Z,14.50
2023-02-19T19:45:11.679Z,16.60
2023-02-19T19:47:39.150Z,16.73
2023-02-19T19:50:06.790Z,18.08
2023-02-19T19:52:34.237Z,17.65
2023-02-19T19:55:01.596Z,17.98
2023-02-19T19:57:30.354Z,29.73
2023-02-19T19:59:57.545Z,20.48
2023-02-19T20:02:24.766Z,19.40
2023-02-19T20:04:51.969Z,17.92
2023-02-19T20:07:19.029Z,18.73
2023-02-19T20:09:48.009Z,19.02
2023-02-19T20:12:15.363Z,20.58
2023-02-19T20:14:45.686Z,18.90
2023-02-19T20:17:13.053Z,17.70
2023-02-19T20:19:40.226Z,17.30
2023-02-19T20:22:07.585Z,22.02
2023-02-19T20:24:34.759Z,19.63
2023-02-19T20:27:02.133Z,19.90
2023-02-19T20:29:31.339Z,20.58
2023-02-19T20:32:00.554Z,20.70
2023-02-19T20:34:27.859Z,20.38
2023-02-19T20:36:55.647Z,19.77
2023-02-19T20:39:23.028Z,19.13
2023-02-19T20:41:52.912Z,19.17
2023-02-19T20:44:21.664Z,18.63
2023-02-19T20:46:50.432Z,19.15
2023-02-19T20:49:21.550Z,19.92
2023-02-19T20:51:50.766Z,19.35
2023-02-19T20:54:18.498Z,19.15
2023-02-19T20:56:45.554Z,18.55
2023-02-19T20:59:12.738Z,20.45
2023-02-19T21:01:39.836Z,18.23
2023-02-19T21:04:07.283Z,18.35
2023-02-19T21:06:39.039Z,19.77
2023-02-19T21:09:06.591Z,19.08
2023-02-19T21:11:33.904Z,18.88
2023-02-19T21:14:01.162Z,20.30
2023-02-19T21:16:29.862Z,19.95
2023-02-19T21:18:57.194Z,20.20
2023-02-19T21:21:25.469Z,21.02
2023-02-19T21:23:54.333Z,19.85
2023-02-19T21:26:22.058Z,20.45
2023-02-19T21:28:51.062Z,19.70
2023-02-19T21:31:18.403Z,20.50
2023-02-19T21:33:45.428Z,18.73
2023-02-19T21:36:13.086Z,19.42
2023-02-19T21:38:40.607Z,19.70
2023-02-19T21:41:09.025Z,20.02
2023-02-19T21:43:36.082Z,18.60
2023-02-19T21:46:03.232Z,18.92
2023-02-19T21:48:30.236Z,19.67
2023-02-19T21:50:57.398Z,19.90
2023-02-19T21:53:24.671Z,19.20
2023-02-19T21:55:58.705Z,19.58
2023-02-19T21:58:27.469Z,18.85
2023-02-19T22:00:54.804Z,19.67
2023-02-19T22:03:21.887Z,18.73
2023-02-19T22:05:48.941Z,21.95
2023-02-19T22:08:16.203Z,19.55
2023-02-19T22:10:43.537Z,18.45
2023-02-19T22:13:11.042Z,18.50
2023-02-19T22:15:39.594Z,17.92
2023-02-19T22:18:06.589Z,17.45
2023-02-19T22:20:33.600Z,17.17
2023-02-19T22:23:00.598Z,17.05
2023-02-19T22:25:27.664Z,17.35
2023-02-19T22:27:54.691Z,16.98
2023-02-19T22:30:21.876Z,16.50
2023-02-19T22:32:50.285Z,15.90
2023-02-19T22:35:17.448Z,17.17
2023-02-19T22:37:44.499Z,17.38
2023-02-19T22:40:12.583Z,16.42
2023-02-19T22:42:39.761Z,16.08
2023-02-19T22:45:07.622Z,16.15
2023-02-19T22:47:34.604Z,15.25
2023-02-19T22:50:03.611Z,14.15
2023-02-19T22:52:30.603Z,14.82
2023-02-19T22:54:58.068Z,14.38
2023-02-19T22:57:25.124Z,14.93
2023-02-19T22:59:52.290Z,14.27
2023-02-19T23:02:19.326Z,13.98
2023-02-19T23:04:46.374Z,13.07
2023-02-19T23:07:14.885Z,15.10
2023-02-19T23:09:41.890Z,14.52
2023-02-19T23:12:10.332Z,13.77
2023-02-19T23:14:37.602Z,14.35
2023-02-19T23:17:04.684Z,13.95
2023-02-19T23:19:32.264Z,13.60
2023-02-19T23:22:00.091Z,12.27
2023-02-19T23:24:28.563Z,13.77
2023-02-19T23:26:55.615Z,12.68
2023-02-19T23:29:25.335Z,12.10
2023-02-19T23:31:53.442Z,12.20
2023-02-19T23:34:21.191Z,11.57
2023-02-19T23:36:51.793Z,11.73
2023-02-19T23:39:21.051Z,11.52
2023-02-19T23:41:51.756Z,11.20
2023-02-19T23:44:19.498Z,11.25
2023-02-19T23:46:47.008Z,10.77
2023-02-19T23:49:14.146Z,11.40
2023-02-19T23:51:41.618Z,11.85
2023-02-19T23:54:08.864Z,10.80
2023-02-19T23:56:36.415Z,10.63
2023-02-19T23:59:05.200Z,11.45
